Time;durP1;ratioP1;P1;durP2;ratioP2;P2;SDS_P1;SDS_P2;PMS_P1;PMS_P2;Temp;Humidity;BMP_temperature;BMP_pressure;BME280_temperature;BME280_humidity;BME280_pressure;Samples;Min_cycle;Max_cycle;Signal;HPM_P1;HPM_P2
2022/04/13 00:02:02;;;;;;;12.52;5.68;;;;;;;10.50;48.18;101073.84;5065982;28;20455;-70
2022/04/13 00:04:28;;;;;;;9.68;5.35;;;;;;;10.52;48.13;101077.25;5066592;28;20125;-70
2022/04/13 00:06:57;;;;;;;11.45;5.55;;;;;;;10.75;47.40;101075.25;5069863;28;20074;-70
2022/04/13 00:09:24;;;;;;;11.68;6.00;;;;;;;10.39;48.29;101070.84;5068541;28;20558;-70
2022/04/13 00:11:52;;;;;;;10.23;5.90;;;;;;;10.42;48.41;101063.69;5068992;28;20774;-69
2022/04/13 00:14:22;;;;;;;16.75;5.55;;;;;;;10.68;47.45;101065.97;5070837;28;20052;-69
2022/04/13 00:16:48;;;;;;;10.13;5.82;;;;;;;10.97;47.25;101058.50;5069745;28;20040;-69
2022/04/13 00:19:15;;;;;;;10.43;5.60;;;;;;;10.82;47.46;101056.63;5068716;28;20049;-69
2022/04/13 00:21:41;;;;;;;11.50;6.13;;;;;;;10.73;48.06;101056.13;5069607;28;20462;-70
2022/04/13 00:24:11;;;;;;;9.60;5.75;;;;;;;10.92;47.21;101052.63;5069507;28;20041;-69
2022/04/13 00:26:37;;;;;;;13.30;5.97;;;;;;;10.66;48.24;101052.09;5069125;28;20041;-69
2022/04/13 00:29:04;;;;;;;10.80;6.00;;;;;;;10.66;47.99;101059.97;5067498;28;20466;-69
2022/04/13 00:31:30;;;;;;;10.35;5.72;;;;;;;10.98;47.37;101060.19;5069548;28;20512;-69
2022/04/13 00:33:56;;;;;;;9.45;5.63;;;;;;;10.97;47.51;101058.50;5068632;28;20041;-69
2022/04/13 00:36:23;;;;;;;10.32;5.80;;;;;;;10.93;47.32;101059.56;5067852;28;20121;-69
2022/04/13 00:38:49;;;;;;;13.77;6.10;;;;;;;10.73;47.85;101056.13;5068282;28;20040;-69
2022/04/13 00:41:17;;;;;;;13.95;6.45;;;;;;;10.51;48.88;101054.56;5069348;28;20574;-69
2022/04/13 00:43:44;;;;;;;9.95;6.07;;;;;;;10.56;48.42;101053.44;5068351;28;20047;-69
2022/04/13 00:46:10;;;;;;;12.10;6.25;;;;;;;10.35;48.93;101051.78;5069097;28;20052;-69
2022/04/13 00:48:39;;;;;;;8.57;5.88;;;;;;;10.45;48.69;101050.47;5068709;28;20070;-69
2022/04/13 00:51:07;;;;;;;11.68;6.07;;;;;;;10.39;49.26;101047.25;5068310;28;20063;-69
2022/04/13 00:53:36;;;;;;;16.70;6.82;;;;;;;10.52;48.64;101061.53;5067829;28;20105;-69
2022/04/13 00:56:04;;;;;;;10.40;5.97;;;;;;;10.98;47.82;101052.31;5083843;28;20087;-69
2022/04/13 00:58:34;;;;;;;11.45;6.20;;;;;;;10.62;48.84;101041.81;5081646;28;20474;-69
2022/04/13 01:01:02;;;;;;;12.95;6.25;;;;;;;10.74;48.35;101038.63;5068212;28;20044;-69
2022/04/13 01:03:30;;;;;;;16.30;6.88;;;;;;;10.19;49.72;101042.94;5068372;28;20053;-69
2022/04/13 01:05:57;;;;;;;13.35;6.03;;;;;;;9.90;50.77;101041.59;5068347;28;20049;-71
2022/04/13 01:08:25;;;;;;;12.52;6.68;;;;;;;10.03;50.37;101036.66;5068116;28;20043;-71
2022/04/13 01:10:51;;;;;;;11.77;6.72;;;;;;;10.00;50.33;101028.94;5067536;28;20052;-71
2022/04/13 01:13:18;;;;;;;11.02;6.70;;;;;;;9.98;50.21;101034.22;5067522;28;20048;-72
2022/04/13 01:15:46;;;;;;;11.45;6.05;;;;;;;10.16;49.84;101032.63;5067674;28;20044;-73
2022/04/13 01:18:14;;;;;;;11.32;6.63;;;;;;;10.39;49.19;101034.16;5068180;28;20455;-73
2022/04/13 01:20:49;;;;;;;9.68;6.32;;;;;;;10.13;49.57;101032.69;5068211;28;20115;-72
2022/04/13 01:23:17;;;;;;;11.40;6.57;;;;;;;10.49;48.80;101038.06;5067841;28;20119;-72
2022/04/13 01:25:48;;;;;;;16.13;7.10;;;;;;;10.11;49.31;101050.25;5068160;28;20660;-72
2022/04/13 01:28:14;;;;;;;11.40;7.05;;;;;;;10.16;49.61;101048.34;5066177;28;20036;-71
2022/04/13 01:30:41;;;;;;;13.07;6.70;;;;;;;9.91;49.97;101050.28;5067663;28;20071;-71
2022/04/13 01:33:07;;;;;;;10.05;6.53;;;;;;;9.70;50.57;101049.47;5067707;28;20413;-72
2022/04/13 01:35:34;;;;;;;13.13;6.35;;;;;;;9.56;50.90;101042.22;5068169;28;20044;-72
2022/04/13 01:38:00;;;;;;;11.30;6.15;;;;;;;9.84;50.54;101041.84;5068132;28;20037;-71
2022/04/13 01:40:28;;;;;;;11.70;5.55;;;;;;;9.95;50.24;101050.09;5066979;28;20044;-72
2022/04/13 01:42:54;;;;;;;11.13;6.68;;;;;;;9.70;50.43;101044.22;5067268;28;20040;-71
2022/04/13 01:45:21;;;;;;;15.02;6.38;;;;;;;9.99;50.04;101035.09;5066647;28;20048;-72
2022/04/13 01:47:48;;;;;;;10.43;5.90;;;;;;;9.72;50.80;101037.13;5067618;28;20070;-71
2022/04/13 01:50:16;;;;;;;9.07;5.35;;;;;;;9.58;50.96;101037.75;5066785;28;20044;-71
2022/04/13 01:52:42;;;;;;;10.63;6.63;;;;;;;9.57;50.98;101037.81;5067088;28;20040;-72
2022/04/13 01:55:10;;;;;;;8.93;5.32;;;;;;;10.19;49.39;101037.72;5067215;28;20094;-71
2022/04/13 01:57:38;;;;;;;14.40;6.28;;;;;;;10.11;50.06;101039.78;5066868;28;20037;-72
2022/04/13 02:00:06;;;;;;;17.63;6.25;;;;;;;9.91;50.39;101052.91;5066331;28;20041;-71
2022/04/13 02:02:33;;;;;;;14.05;7.22;;;;;;;10.02;49.74;101042.81;5067021;28;20525;-71
2022/04/13 02:04:59;;;;;;;13.95;6.35;;;;;;;10.29;49.54;101043.38;5067623;28;20116;-71
2022/04/13 02:07:26;;;;;;;11.00;6.47;;;;;;;10.14;49.59;101048.38;5067608;28;20053;-71
2022/04/13 02:09:52;;;;;;;13.98;6.50;;;;;;;10.49;48.81;101044.19;5066195;28;20044;-71
2022/04/13 02:12:19;;;;;;;12.63;6.22;;;;;;;10.87;47.90;101051.97;5067610;28;20048;-71
2022/04/13 02:14:47;;;;;;;10.60;6.57;;;;;;;10.48;48.97;101045.09;5064246;28;20094;-71
2022/04/13 02:17:16;;;;;;;8.95;5.88;;;;;;;10.55;49.15;101049.13;5071753;28;20105;-72
2022/04/13 02:19:43;;;;;;;12.02;5.93;;;;;;;10.32;49.55;101053.72;5073015;28;20052;-72
2022/04/13 02:22:10;;;;;;;12.52;6.72;;;;;;;9.96;50.49;101045.72;5074274;28;20040;-73
2022/04/13 02:24:37;;;;;;;10.88;6.53;;;;;;;10.06;50.83;101044.38;5073933;28;20044;-72
2022/04/13 02:27:04;;;;;;;13.20;6.10;;;;;;;10.51;49.22;101042.31;5073812;28;20044;-72
2022/04/13 02:29:30;;;;;;;11.45;6.63;;;;;;;10.53;49.61;101050.13;5072242;28;20044;-72
2022/04/13 02:31:58;;;;;;;14.40;7.25;;;;;;;10.14;50.82;101050.13;5070778;28;20040;-72
2022/04/13 02:34:24;;;;;;;10.43;6.20;;;;;;;10.02;51.30;101043.66;5071556;28;20040;-72
2022/04/13 02:36:51;;;;;;;13.40;7.03;;;;;;;9.66;51.82;101048.75;5073462;28;20067;-72
2022/04/13 02:39:17;;;;;;;14.00;6.43;;;;;;;9.70;52.12;101052.94;5072555;28;20117;-72
2022/04/13 02:41:43;;;;;;;13.20;6.88;;;;;;;9.56;52.61;101057.91;5073954;28;20056;-72
2022/04/13 02:44:10;;;;;;;17.33;7.68;;;;;;;8.94;54.35;101060.50;5073669;28;20044;-72
2022/04/13 02:46:36;;;;;;;11.80;7.07;;;;;;;8.98;54.54;101056.81;5073894;28;20074;-72
2022/04/13 02:49:04;;;;;;;11.70;6.68;;;;;;;9.10;54.72;101058.09;5072367;28;20067;-73
2022/04/13 02:51:30;;;;;;;13.50;7.10;;;;;;;8.82;55.46;101060.97;5073172;28;20102;-72
2022/04/13 02:53:56;;;;;;;13.88;6.15;;;;;;;9.06;54.97;101060.00;5073199;28;20101;-72
2022/04/13 02:56:23;;;;;;;11.50;7.05;;;;;;;9.47;53.83;101047.81;5073436;28;20052;-71
2022/04/13 02:58:49;;;;;;;13.32;7.28;;;;;;;9.56;53.55;101052.69;5072897;28;20444;-71
2022/04/13 03:01:15;;;;;;;11.77;7.30;;;;;;;9.21;54.38;101050.66;5073448;28;20094;-71
2022/04/13 03:03:43;;;;;;;10.50;6.38;;;;;;;9.05;54.90;101047.00;5073208;28;20044;-71
2022/04/13 03:06:10;;;;;;;14.10;6.85;;;;;;;9.26;54.68;101051.34;5073307;28;20110;-71
2022/04/13 03:08:37;;;;;;;11.73;7.20;;;;;;;9.08;55.04;101044.25;5073071;28;20424;-72
2022/04/13 03:11:03;;;;;;;15.57;7.47;;;;;;;9.27;54.50;101039.97;5072682;28;20056;-72
2022/04/13 03:13:30;;;;;;;14.30;8.02;;;;;;;9.69;53.49;101042.50;5073115;28;20842;-72
2022/04/13 03:15:56;;;;;;;19.08;7.93;;;;;;;9.66;53.62;101043.50;5073169;28;20044;-72
2022/04/13 03:18:23;;;;;;;9.50;6.38;;;;;;;9.94;52.53;101037.91;5072926;28;20047;-71
2022/04/13 03:20:49;;;;;;;18.15;7.50;;;;;;;9.92;52.71;101044.13;5072487;28;20040;-72
2022/04/13 03:23:17;;;;;;;13.88;7.28;;;;;;;9.61;53.71;101039.38;5073006;28;20390;-72
2022/04/13 03:25:43;;;;;;;14.20;7.70;;;;;;;9.22;54.72;101034.06;5073070;28;20041;-71
2022/04/13 03:28:09;;;;;;;15.88;7.20;;;;;;;9.16;54.87;101039.56;5070950;28;20036;-72
2022/04/13 03:30:36;;;;;;;12.52;7.20;;;;;;;9.07;55.26;101035.53;5069079;28;20161;-72
2022/04/13 03:33:02;;;;;;;13.43;7.43;;;;;;;8.75;55.85;101038.59;5069735;28;20094;-72
2022/04/13 03:35:29;;;;;;;12.32;7.20;;;;;;;8.96;55.52;101036.88;5068975;28;20729;-72
2022/04/13 03:37:55;;;;;;;11.98;7.55;;;;;;;9.08;55.23;101039.00;5068366;28;20420;-72
2022/04/13 03:40:23;;;;;;;12.90;7.32;;;;;;;9.41;53.83;101032.38;5069031;28;20052;-72
2022/04/13 03:42:50;;;;;;;13.93;7.38;;;;;;;9.43;53.88;101032.31;5061710;28;20044;-72
2022/04/13 03:45:16;;;;;;;14.30;7.53;;;;;;;9.38;54.00;101044.75;5069118;28;20094;-73
2022/04/13 03:47:42;;;;;;;14.30;7.32;;;;;;;9.53;53.32;101033.63;5067207;28;20109;-72
2022/04/13 03:50:10;;;;;;;19.25;7.47;;;;;;;9.18;54.56;101030.72;5068740;28;20080;-72
2022/04/13 03:52:37;;;;;;;12.57;6.97;;;;;;;9.65;53.38;101033.09;5050246;28;20041;-72
2022/04/13 03:55:06;;;;;;;18.17;7.18;;;;;;;9.54;53.34;101036.16;5069532;28;20110;-72
2022/04/13 03:57:34;;;;;;;14.73;7.07;;;;;;;9.34;54.22;101030.09;5069628;28;20497;-72
2022/04/13 04:00:00;;;;;;;15.10;7.05;;;;;;;9.22;54.49;101039.28;5068585;28;20138;-72
2022/04/13 04:02:27;;;;;;;13.77;7.32;;;;;;;9.37;54.09;101029.94;5068943;28;20052;-72
2022/04/13 04:04:53;;;;;;;13.55;7.43;;;;;;;9.04;54.99;101038.28;5069185;28;20052;-72
2022/04/13 04:07:19;;;;;;;15.60;7.70;;;;;;;9.27;54.36;101030.31;5069416;28;20045;-72
2022/04/13 04:09:46;;;;;;;14.75;6.78;;;;;;;9.28;54.68;101028.56;5068723;28;20049;-72
2022/04/13 04:12:12;;;;;;;11.82;6.97;;;;;;;9.18;54.78;101030.72;5069563;28;20044;-72
2022/04/13 04:14:40;;;;;;;13.18;7.40;;;;;;;9.02;55.40;101028.78;5068747;28;20040;-72
2022/04/13 04:17:06;;;;;;;12.15;7.40;;;;;;;8.72;56.00;101036.94;5068224;28;20076;-72
2022/04/13 04:19:33;;;;;;;13.20;7.78;;;;;;;8.76;56.24;101038.53;5068653;28;20109;-72
2022/04/13 04:21:59;;;;;;;18.52;8.55;;;;;;;8.90;55.73;101038.00;5069196;28;20068;-72
2022/04/13 04:24:26;;;;;;;13.18;7.45;;;;;;;9.16;55.02;101034.31;5069359;28;20044;-72
2022/04/13 04:26:52;;;;;;;20.98;7.97;;;;;;;9.15;54.98;101040.47;5068903;28;20779;-72
2022/04/13 04:29:19;;;;;;;14.32;7.72;;;;;;;9.00;55.58;101041.09;5068290;28;20056;-71
2022/04/13 04:31:53;;;;;;;12.18;7.32;;;;;;;8.89;55.83;101036.28;5068080;28;20045;-71
2022/04/13 04:34:21;;;;;;;13.55;7.70;;;;;;;9.17;55.00;101041.25;5065037;28;20056;-71
2022/04/13 04:36:48;;;;;;;13.68;7.78;;;;;;;9.16;54.90;101036.94;5068249;28;20056;-71
2022/04/13 04:39:14;;;;;;;14.23;6.82;;;;;;;9.08;55.14;101041.63;5068302;28;20127;-71
2022/04/13 04:41:41;;;;;;;15.25;7.93;;;;;;;9.08;55.43;101045.09;5069122;28;20496;-72
2022/04/13 04:44:08;;;;;;;16.92;8.48;;;;;;;9.13;55.05;101048.34;5067636;28;20508;-72
2022/04/13 04:46:34;;;;;;;15.18;7.55;;;;;;;9.06;55.68;101043.44;5068902;28;20048;-72
2022/04/13 04:49:02;;;;;;;12.07;7.00;;;;;;;9.03;55.81;101046.19;5067342;28;20078;-72
2022/04/13 04:51:30;;;;;;;14.15;7.90;;;;;;;8.89;56.29;101044.13;5068997;28;20092;-72
2022/04/13 04:53:57;;;;;;;15.40;7.95;;;;;;;9.20;55.66;101049.81;5068370;28;20045;-72
2022/04/13 04:56:23;;;;;;;13.90;8.15;;;;;;;9.55;54.68;101061.44;5067705;28;20064;-72
2022/04/13 04:58:49;;;;;;;18.38;7.93;;;;;;;9.24;56.23;101046.16;5067339;28;20402;-72
2022/04/13 05:01:16;;;;;;;13.45;8.10;;;;;;;9.43;55.57;101050.63;5068288;28;20044;-72
2022/04/13 05:03:43;;;;;;;14.90;8.30;;;;;;;9.68;54.46;101049.50;5067958;28;20581;-72
2022/04/13 05:06:10;;;;;;;13.82;8.57;;;;;;;9.69;54.89;101059.06;5068455;28;20043;-72
2022/04/13 05:08:37;;;;;;;12.85;7.63;;;;;;;9.77;55.00;101053.50;5068331;28;20123;-73
2022/04/13 05:11:03;;;;;;;13.90;7.78;;;;;;;9.25;56.54;101057.47;5066772;28;20082;-72
2022/04/13 05:13:30;;;;;;;17.50;8.25;;;;;;;9.17;56.65;101059.56;5067359;28;20094;-72
2022/04/13 05:15:56;;;;;;;15.23;8.57;;;;;;;9.06;57.34;101061.75;5067857;28;20043;-72
2022/04/13 05:18:22;;;;;;;16.38;8.65;;;;;;;9.43;56.63;101071.56;5067642;28;20048;-72
2022/04/13 05:20:49;;;;;;;17.38;8.02;;;;;;;9.72;55.80;101073.81;5066683;28;20048;-72
2022/04/13 05:23:18;;;;;;;15.82;8.38;;;;;;;10.16;54.59;101069.31;5067168;28;20048;-72
2022/04/13 05:25:46;;;;;;;13.57;8.02;;;;;;;10.16;54.30;101071.91;5067617;28;20051;-72
2022/04/13 05:28:12;;;;;;;14.82;7.80;;;;;;;9.92;55.30;101078.19;5067912;28;20044;-72
2022/04/13 05:30:39;;;;;;;15.85;7.63;;;;;;;10.23;54.35;101086.44;5065795;28;20114;-72
2022/04/13 05:33:06;;;;;;;18.33;8.52;;;;;;;10.29;53.66;101080.91;5067310;28;20045;-72
2022/04/13 05:35:33;;;;;;;13.77;8.60;;;;;;;10.43;53.90;101081.13;5067235;28;20052;-72
2022/04/13 05:38:02;;;;;;;21.08;8.93;;;;;;;10.60;53.74;101083.84;5067402;28;20053;-73
2022/04/13 05:40:29;;;;;;;15.32;7.95;;;;;;;10.52;54.04;101090.38;5065711;28;20883;-72
2022/04/13 05:42:56;;;;;;;13.15;8.20;;;;;;;10.81;53.11;101089.00;5067515;28;20070;-72
2022/04/13 05:45:22;;;;;;;14.45;8.40;;;;;;;10.89;53.14;101087.72;5067556;28;20048;-72
2022/04/13 05:47:49;;;;;;;15.70;8.55;;;;;;;11.23;52.34;101092.22;5068685;28;20047;-72
2022/04/13 05:50:15;;;;;;;16.38;8.50;;;;;;;10.87;52.87;101093.94;5067162;28;20048;-72
2022/04/13 05:52:43;;;;;;;14.35;7.60;;;;;;;10.93;53.28;101093.69;5067243;28;20041;-72
2022/04/13 05:55:12;;;;;;;13.57;7.97;;;;;;;11.83;50.83;101087.47;5067477;28;20093;-72
2022/04/13 05:57:39;;;;;;;16.20;8.48;;;;;;;11.46;51.67;101091.06;5067364;28;20408;-72
2022/04/13 06:00:10;;;;;;;14.75;8.30;;;;;;;11.58;50.80;101099.19;5066664;28;20041;-72
2022/04/13 06:02:37;;;;;;;15.38;8.95;;;;;;;11.23;52.10;101102.72;5067526;28;20127;-72
2022/04/13 06:05:04;;;;;;;14.73;8.77;;;;;;;12.01;50.41;101107.56;5066515;28;20048;-72
2022/04/13 06:07:30;;;;;;;13.90;8.30;;;;;;;12.63;47.35;101105.09;5061988;28;20044;-72
2022/04/13 06:10:01;;;;;;;14.13;9.23;;;;;;;12.06;49.82;101116.03;5066715;28;20040;-72
2022/04/13 06:12:28;;;;;;;15.63;8.63;;;;;;;11.97;50.12;101114.72;5065117;28;20095;-71
2022/04/13 06:15:03;;;;;;;13.30;8.57;;;;;;;11.75;51.19;101108.88;5066629;28;20045;-72
2022/04/13 06:17:29;;;;;;;13.82;9.27;;;;;;;11.46;52.50;101106.81;5064221;28;20053;-72
2022/04/13 06:19:55;;;;;;;17.35;9.98;;;;;;;11.71;52.42;101109.97;5066796;28;20040;-72
2022/04/13 06:22:22;;;;;;;13.38;8.70;;;;;;;12.30;51.25;101114.78;5069312;28;20159;-72
2022/04/13 06:24:51;;;;;;;14.52;8.95;;;;;;;12.58;49.75;101103.63;5068848;28;20040;-72
2022/04/13 06:27:18;;;;;;;15.88;8.50;;;;;;;12.20;50.76;101109.13;5068680;28;20106;-70
2022/04/13 06:29:44;;;;;;;12.05;8.20;;;;;;;11.61;52.31;101111.31;5071455;28;20063;-70
2022/04/13 06:32:12;;;;;;;14.40;8.60;;;;;;;11.99;52.92;101112.88;5093390;28;20025;-70
2022/04/13 06:34:38;;;;;;;14.98;8.55;;;;;;;12.77;49.90;101099.06;5089308;28;20029;-71
2022/04/13 06:37:05;;;;;;;14.95;8.40;;;;;;;13.38;49.29;101106.16;5090190;28;20088;-70
2022/04/13 06:39:31;;;;;;;15.82;8.55;;;;;;;13.35;48.37;101106.34;5090205;28;20032;-70
2022/04/13 06:41:58;;;;;;;14.07;8.18;;;;;;;13.95;45.77;101112.44;5090259;28;20067;-71
2022/04/13 06:44:24;;;;;;;14.82;8.73;;;;;;;14.02;46.75;101114.63;5089616;28;20071;-71
2022/04/13 06:46:51;;;;;;;14.70;8.27;;;;;;;13.54;47.42;101107.84;5088104;28;20102;-71
2022/04/13 06:49:18;;;;;;;15.23;8.55;;;;;;;13.88;47.60;101111.13;5077763;28;20052;-71
2022/04/13 06:51:45;;;;;;;13.05;7.78;;;;;;;13.57;48.30;101109.44;5080450;28;20041;-71
2022/04/13 06:54:11;;;;;;;16.50;8.63;;;;;;;13.49;47.95;101107.25;5083895;28;20066;-71
2022/04/13 06:56:39;;;;;;;18.98;8.57;;;;;;;13.23;47.36;101114.97;5073834;28;20044;-71
2022/04/13 06:59:06;;;;;;;11.65;7.05;;;;;;;13.69;45.88;101111.34;5068266;28;20559;-71
2022/04/13 07:01:32;;;;;;;15.13;8.05;;;;;;;14.35;46.20;101116.19;5068587;28;20106;-72
2022/04/13 07:03:58;;;;;;;11.25;7.60;;;;;;;13.95;44.77;101120.38;5071643;28;20045;-72
2022/04/13 07:06:26;;;;;;;14.25;8.05;;;;;;;13.43;46.23;101110.25;5073504;28;20102;-72
2022/04/13 07:08:52;;;;;;;12.80;7.03;;;;;;;13.29;46.16;101122.50;5072105;28;20509;-72
2022/04/13 07:11:19;;;;;;;15.23;8.02;;;;;;;12.95;47.34;101120.88;5072332;28;20465;-71
2022/04/13 07:13:45;;;;;;;16.23;7.82;;;;;;;13.94;47.97;101131.84;5072081;28;20098;-71
2022/04/13 07:16:11;;;;;;;14.50;7.63;;;;;;;12.95;46.86;101126.13;5070546;28;20101;-71
2022/04/13 07:18:38;;;;;;;15.13;7.05;;;;;;;12.84;47.00;101139.03;5071148;28;20451;-71
2022/04/13 07:21:04;;;;;;;12.65;7.47;;;;;;;12.75;48.02;101144.81;5072521;28;20613;-72
2022/04/13 07:23:32;;;;;;;13.15;8.35;;;;;;;13.12;47.66;101142.72;5069863;28;20056;-71
2022/04/13 07:25:58;;;;;;;12.55;7.50;;;;;;;13.80;46.82;101147.63;5068325;28;20060;-72
2022/04/13 07:28:25;;;;;;;11.85;7.28;;;;;;;13.84;45.71;101141.25;5073856;28;20109;-72
2022/04/13 07:30:51;;;;;;;13.27;7.32;;;;;;;14.20;46.00;101140.81;5089634;28;20040;-72
2022/04/13 07:33:17;;;;;;;13.80;7.70;;;;;;;14.27;43.84;101143.00;5074473;28;20056;-72
2022/04/13 07:35:44;;;;;;;14.15;7.80;;;;;;;14.10;45.77;101137.91;5072709;28;20097;-73
2022/04/13 07:38:11;;;;;;;12.65;7.82;;;;;;;14.40;44.30;101136.09;5069265;28;20090;-71
2022/04/13 07:40:39;;;;;;;14.55;7.93;;;;;;;15.56;43.00;101140.09;5067180;28;20064;-71
2022/04/13 07:43:07;;;;;;;16.52;7.75;;;;;;;14.72;43.66;101141.16;5070005;28;20049;-71
2022/04/13 07:45:35;;;;;;;16.98;7.85;;;;;;;13.98;44.56;101147.38;5069960;28;20060;-71
2022/04/13 07:48:01;;;;;;;15.85;7.40;;;;;;;14.31;44.69;101144.53;5069808;28;20045;-71
2022/04/13 07:50:27;;;;;;;15.25;7.32;;;;;;;15.01;44.66;101138.38;5069101;28;20053;-69
2022/04/13 07:52:54;;;;;;;11.35;7.15;;;;;;;14.78;43.42;101146.06;5066418;28;20048;-70
2022/04/13 07:55:20;;;;;;;13.68;7.45;;;;;;;15.13;43.44;101138.53;5069351;28;20126;-70
2022/04/13 07:57:48;;;;;;;15.32;7.88;;;;;;;15.40;44.10;101140.25;5069111;28;20036;-70
2022/04/13 08:00:15;;;;;;;12.73;7.13;;;;;;;14.55;44.97;101145.72;5069399;28;20068;-71
2022/04/13 08:02:42;;;;;;;15.65;7.70;;;;;;;14.31;44.63;101157.72;5069325;28;20102;-71
2022/04/13 08:05:10;;;;;;;14.20;7.10;;;;;;;14.00;45.82;101158.72;5069756;28;20044;-71
2022/04/13 08:07:37;;;;;;;19.73;7.90;;;;;;;14.53;46.01;101163.41;5069896;28;20492;-72
2022/04/13 08:10:03;;;;;;;14.63;7.40;;;;;;;14.30;44.99;101165.72;5068583;28;20080;-72
2022/04/13 08:12:30;;;;;;;11.82;7.07;;;;;;;14.46;44.64;101164.72;5068690;28;20054;-72
2022/04/13 08:15:00;;;;;;;11.18;6.97;;;;;;;15.42;44.55;101154.19;5068663;28;20041;-73
2022/04/13 08:17:27;;;;;;;13.82;7.43;;;;;;;14.99;44.56;101155.28;5068598;28;20428;-72
2022/04/13 08:19:54;;;;;;;13.15;7.57;;;;;;;15.15;43.03;101161.25;5067986;28;20074;-72
2022/04/13 08:22:23;;;;;;;12.40;8.13;;;;;;;15.46;43.19;101160.97;5068951;28;20052;-73
2022/04/13 08:24:49;;;;;;;12.27;7.40;;;;;;;14.99;43.31;101161.41;5066468;28;20122;-72
2022/04/13 08:27:15;;;;;;;14.30;7.55;;;;;;;15.50;42.87;101162.50;5067824;28;20432;-72
2022/04/13 08:29:42;;;;;;;13.85;7.45;;;;;;;15.33;42.91;101164.53;5067014;28;20102;-72
2022/04/13 08:32:10;;;;;;;12.52;7.03;;;;;;;16.02;42.49;101153.75;5068409;28;20098;-72
2022/04/13 08:34:36;;;;;;;12.27;7.68;;;;;;;16.08;42.09;101163.91;5066673;28;20048;-72
2022/04/13 08:37:02;;;;;;;10.48;7.40;;;;;;;17.06;41.02;101166.75;5065905;28;20460;-72
2022/04/13 08:39:29;;;;;;;14.98;7.90;;;;;;;17.45;40.11;101163.84;5065084;28;20053;-73
2022/04/13 08:41:57;;;;;;;13.25;6.95;;;;;;;17.97;39.16;101162.63;5061289;28;20114;-73
2022/04/13 08:44:31;;;;;;;12.98;8.45;;;;;;;18.14;40.69;101164.88;5068305;28;20114;-72
2022/04/13 08:47:02;;;;;;;16.27;8.35;;;;;;;18.14;41.07;101162.22;5066939;28;20060;-72
2022/04/13 08:49:34;;;;;;;14.45;8.35;;;;;;;18.65;39.51;101164.47;5067337;28;20048;-72
2022/04/13 08:52:03;;;;;;;12.65;8.63;;;;;;;18.59;40.76;101164.97;5067850;28;20056;-72
2022/04/13 08:54:32;;;;;;;14.25;9.32;;;;;;;18.32;40.44;101171.44;5059107;28;20158;-72
2022/04/13 08:56:59;;;;;;;15.80;8.57;;;;;;;18.32;38.85;101173.22;5056650;28;20037;-72
2022/04/13 08:59:32;;;;;;;14.32;8.73;;;;;;;18.04;41.88;101171.81;5067112;28;20072;-71
2022/04/13 09:02:07;;;;;;;12.75;8.32;;;;;;;18.56;41.21;101171.34;5054419;28;20041;-71
2022/04/13 09:04:41;;;;;;;13.95;7.75;;;;;;;19.30;38.10;101161.84;5068347;28;20053;-72
2022/04/13 09:07:09;;;;;;;14.35;8.80;;;;;;;18.68;39.21;101174.84;5067529;28;20056;-72
2022/04/13 09:09:40;;;;;;;17.30;7.97;;;;;;;18.25;42.46;101170.22;5065517;28;20499;-72
2022/04/13 09:12:09;;;;;;;19.10;8.43;;;;;;;18.63;39.41;101155.78;5064929;28;20056;-72
2022/04/13 09:14:36;;;;;;;17.23;9.05;;;;;;;19.45;40.45;101157.97;5067117;28;20466;-72
2022/04/13 09:17:03;;;;;;;14.30;8.50;;;;;;;19.86;37.42;101158.06;5066466;28;20045;-72
2022/04/13 09:19:30;;;;;;;15.27;8.15;;;;;;;19.74;43.69;101160.88;5064438;28;20053;-73
2022/04/13 09:21:59;;;;;;;14.40;8.50;;;;;;;20.76;35.34;101161.00;5067775;28;20040;-73
2022/04/13 09:24:27;;;;;;;12.15;8.30;;;;;;;19.76;40.79;101170.44;5065901;28;20094;-74
2022/04/13 09:26:54;;;;;;;14.05;9.02;;;;;;;19.76;37.61;101161.63;5081797;28;20043;-73
2022/04/13 09:29:20;;;;;;;10.30;7.95;;;;;;;19.83;39.95;101160.97;5073989;28;20048;-73
2022/04/13 09:31:47;;;;;;;14.88;8.10;;;;;;;20.66;36.11;101165.41;5084920;28;20098;-74
2022/04/13 09:34:13;;;;;;;14.02;8.25;;;;;;;20.29;37.40;101157.94;5066655;28;20109;-73
2022/04/13 09:36:40;;;;;;;13.70;8.27;;;;;;;20.50;37.54;101165.94;5067786;28;20614;-73
2022/04/13 09:39:09;;;;;;;11.35;8.07;;;;;;;20.76;35.64;101155.66;5067130;28;20468;-73
2022/04/13 09:41:37;;;;;;;17.23;8.75;;;;;;;20.61;38.61;101157.00;5065433;28;20050;-73
2022/04/13 09:44:13;;;;;;;15.68;8.43;;;;;;;20.39;37.57;101166.84;5067007;28;20040;-73
2022/04/13 09:46:40;;;;;;;13.55;8.18;;;;;;;18.84;40.35;101162.06;5067498;28;20041;-74
2022/04/13 09:49:11;;;;;;;15.32;8.30;;;;;;;19.98;39.31;101158.84;5069138;28;20458;-73
2022/04/13 09:51:39;;;;;;;11.65;8.40;;;;;;;20.26;38.50;101157.34;5067197;28;21563;-73
2022/04/13 09:54:09;;;;;;;13.63;8.88;;;;;;;20.32;36.99;101152.34;5067861;28;20044;-73
2022/04/13 09:56:38;;;;;;;15.88;8.95;;;;;;;20.89;36.92;101142.94;5066516;28;20098;-73
2022/04/13 09:59:06;;;;;;;16.15;8.90;;;;;;;21.23;38.13;101140.81;5066717;28;20128;-73
2022/04/13 10:01:34;;;;;;;13.80;8.68;;;;;;;21.38;38.16;101146.59;5086038;28;20051;-73
2022/04/13 10:04:01;;;;;;;12.80;8.55;;;;;;;19.61;37.83;101149.59;5067071;28;20045;-73
2022/04/13 10:06:28;;;;;;;12.95;8.07;;;;;;;19.79;39.86;101153.38;5067305;28;20052;-73
2022/04/13 10:09:00;;;;;;;12.65;8.20;;;;;;;19.95;38.82;101147.63;5066707;28;20078;-73
2022/04/13 10:11:28;;;;;;;13.88;8.90;;;;;;;19.55;39.92;101148.25;5058956;28;20045;-73
2022/04/13 10:13:54;;;;;;;16.55;9.82;;;;;;;19.42;40.19;101145.78;5066886;28;20049;-73
2022/04/13 10:16:21;;;;;;;15.77;8.68;;;;;;;19.50;42.80;101146.97;5067994;28;20430;-73
2022/04/13 10:18:55;;;;;;;12.85;7.90;;;;;;;20.35;40.02;101141.47;5070693;28;20045;-73
2022/04/13 10:21:35;;;;;;;14.60;9.05;;;;;;;21.12;38.63;101132.94;5064126;28;20044;-73
2022/04/13 10:24:01;;;;;;;14.70;8.10;;;;;;;20.93;40.62;101139.03;5067746;28;20497;-73
2022/04/13 10:26:29;;;;;;;14.43;8.73;;;;;;;21.03;37.26;101139.03;5067493;28;20470;-73
2022/04/13 10:28:56;;;;;;;13.63;8.63;;;;;;;21.52;40.53;101144.34;5066408;28;20519;-74
2022/04/13 10:31:22;;;;;;;13.57;9.15;;;;;;;21.13;38.10;101142.63;5070716;28;20052;-73
2022/04/13 10:33:49;;;;;;;16.48;8.30;;;;;;;20.45;39.24;101141.50;5063730;28;20052;-73
2022/04/13 10:36:17;;;;;;;14.60;8.95;;;;;;;20.84;37.43;101153.19;5067960;28;20052;-73
2022/04/13 10:38:44;;;;;;;15.48;9.88;;;;;;;20.16;39.39;101157.28;5069734;28;20063;-73
2022/04/13 10:41:15;;;;;;;11.48;8.60;;;;;;;21.08;39.06;101153.66;5071735;28;20106;-73
2022/04/13 10:43:47;;;;;;;14.63;8.30;;;;;;;21.29;38.20;101145.56;5071624;28;20119;-74
2022/04/13 10:46:15;;;;;;;13.18;8.30;;;;;;;21.15;38.30;101152.16;5071440;28;20048;-73
2022/04/13 10:48:46;;;;;;;19.77;8.95;;;;;;;21.35;37.96;101158.38;5071079;28;20056;-73
2022/04/13 10:51:14;;;;;;;14.88;7.80;;;;;;;21.61;37.56;101148.00;5071867;28;20090;-73
2022/04/13 10:53:47;;;;;;;18.17;9.52;;;;;;;21.93;39.30;101156.59;5071250;28;20052;-73
2022/04/13 10:56:15;;;;;;;13.32;8.30;;;;;;;22.18;39.23;101153.31;5071220;28;20044;-73
2022/04/13 10:58:53;;;;;;;13.68;8.10;;;;;;;22.23;35.23;101145.72;5070557;28;20162;-73
2022/04/13 11:01:21;;;;;;;15.27;8.10;;;;;;;21.02;37.90;101154.22;5067837;28;20480;-73
2022/04/13 11:03:48;;;;;;;10.93;7.75;;;;;;;21.33;37.77;101144.31;5071255;28;20558;-73
2022/04/13 11:06:15;;;;;;;14.57;7.50;;;;;;;21.08;36.26;101147.47;5090325;28;20043;-73
2022/04/13 11:08:47;;;;;;;13.13;7.10;;;;;;;21.44;41.49;101152.19;5070715;28;20052;-73
2022/04/13 11:11:19;;;;;;;13.52;7.72;;;;;;;20.81;36.89;101148.09;5071282;28;20041;-73
2022/04/13 11:13:48;;;;;;;19.70;6.80;;;;;;;21.60;35.81;101141.81;5070870;28;20435;-70
2022/04/13 11:16:17;;;;;;;27.42;8.23;;;;;;;22.12;35.54;101145.88;5070893;28;20040;-69
2022/04/13 11:19:04;;;;;;;14.55;7.30;;;;;;;21.58;34.54;101140.28;5070639;28;20132;-69
2022/04/13 11:21:31;;;;;;;11.80;7.05;;;;;;;21.72;35.16;101139.88;5070528;28;20097;-69